Hazen, Nevada
Current Conditions -  °F | °C
As of 11:56 AM on Friday 21 Nov 2014 (Local Time) from KNFL Reporting Station
Broken Clouds Broken Clouds  
Wind Chill: 51°   Ceiling: 28000
Heat Index: 51°   Visibility: 10mi
Dew Point: 34°   Wind: 0mph
Humidity: 52%   Direction: NA
Pressure: 30.04"   Gusts: NA
Location:  39.5869°N, 119.152°W
Report Text: KNFL 211956Z 00000KT 10SM FEW060 FEW150 SCT220 BKN280 11/01 A3004 RMK AO2 SLP140 T01060011
Loading
Personal Weather Stations






























Interactive Weather Map New forecast layout! Learn more

10-Day Weather Forecast

Advertisements
Track Severe Weather on mobile